Time;durP1;ratioP1;P1;durP2;ratioP2;P2;SDS_P1;SDS_P2;PMS_P1;PMS_P2;Temp;Humidity;BMP_temperature;BMP_pressure;BME280_temperature;BME280_humidity;BME280_pressure;Samples;Min_cycle;Max_cycle;Signal;HPM_P1;HPM_P2
2022/05/06 00:01:28;;;;;;;0.47;0.47;;;12.30;99.90;;;;;;4414964;32;20545;-68
2022/05/06 00:03:53;;;;;;;2.20;0.60;;;12.20;99.90;;;;;;4432797;32;20061;-69
2022/05/06 00:06:20;;;;;;;0.50;0.50;;;12.00;99.90;;;;;;4432096;32;20517;-69
2022/05/06 00:08:46;;;;;;;1.95;0.40;;;11.90;99.90;;;;;;4432196;32;20544;-68
2022/05/06 00:11:11;;;;;;;6.55;0.73;;;11.90;99.90;;;;;;4429713;32;20068;-68
2022/05/06 00:13:37;;;;;;;0.40;0.40;;;12.00;99.90;;;;;;4429421;32;20053;-68
2022/05/06 00:16:03;;;;;;;0.40;0.40;;;12.10;99.90;;;;;;4431507;32;20065;-68
2022/05/06 00:18:31;;;;;;;0.30;0.30;;;12.10;99.90;;;;;;4429064;32;20121;-68
2022/05/06 00:20:57;;;;;;;1.12;1.02;;;12.00;99.90;;;;;;4429917;32;20513;-68
2022/05/06 00:23:23;;;;;;;0.22;0.22;;;11.90;99.90;;;;;;4429481;32;20273;-68
2022/05/06 00:25:49;;;;;;;0.30;0.30;;;11.80;99.90;;;;;;4430373;32;21395;-68
2022/05/06 00:28:15;;;;;;;2.33;0.82;;;11.80;99.90;;;;;;4421734;32;20053;-68
2022/05/06 00:30:41;;;;;;;1.12;1.02;;;11.70;99.90;;;;;;4407631;32;20068;-68
2022/05/06 00:33:09;;;;;;;1.30;0.73;;;11.70;99.90;;;;;;4428708;32;20525;-68
2022/05/06 00:35:36;;;;;;;0.43;0.43;;;11.70;99.90;;;;;;4432434;32;20066;-68
2022/05/06 00:38:02;;;;;;;1.55;0.70;;;11.60;99.90;;;;;;4443947;32;20092;-68
2022/05/06 00:40:28;;;;;;;2.28;1.08;;;11.50;99.90;;;;;;4441676;32;20081;-68
2022/05/06 00:42:55;;;;;;;0.50;0.50;;;11.50;99.90;;;;;;4442737;32;20417;-68
2022/05/06 00:45:21;;;;;;;0.30;0.30;;;11.30;99.90;;;;;;4442267;32;20097;-68
2022/05/06 00:47:47;;;;;;;0.30;0.30;;;11.20;99.90;;;;;;4443075;32;20497;-68
2022/05/06 00:50:12;;;;;;;0.30;0.30;;;11.30;99.90;;;;;;4442434;32;20068;-67
2022/05/06 00:52:38;;;;;;;0.30;0.30;;;11.30;99.90;;;;;;4442374;32;20080;-68
2022/05/06 00:55:04;;;;;;;0.50;0.50;;;11.20;99.90;;;;;;4443571;32;20069;-67
2022/05/06 00:57:30;;;;;;;0.40;0.40;;;11.10;99.90;;;;;;4436921;32;20065;-67
2022/05/06 01:00:30;;;;;;;0.37;0.37;;;11.10;99.90;;;;;;4419568;32;20928;-68
2022/05/06 01:02:41;;;;;;;0.30;0.30;;;11.20;99.90;;;;;;4423839;32;20061;-68
2022/05/06 01:05:09;;;;;;;0.50;0.50;;;11.10;99.90;;;;;;4442282;32;20721;-67
2022/05/06 01:07:35;;;;;;;2.92;0.65;;;11.10;99.90;;;;;;4442698;32;20093;-68
2022/05/06 01:10:02;;;;;;;0.68;0.60;;;10.90;99.90;;;;;;4440840;32;20450;-68
2022/05/06 01:12:27;;;;;;;0.55;0.55;;;10.80;99.90;;;;;;4442530;32;20128;-67
2022/05/06 01:14:52;;;;;;;0.98;0.90;;;10.80;99.90;;;;;;4441975;32;20663;-68
2022/05/06 01:17:18;;;;;;;0.50;0.50;;;10.70;99.90;;;;;;4442846;32;20075;-69
2022/05/06 01:19:43;;;;;;;0.35;0.35;;;10.70;99.90;;;;;;4442713;32;20109;-68
2022/05/06 01:22:09;;;;;;;2.90;1.30;;;10.80;99.90;;;;;;4441346;32;20500;-68
2022/05/06 01:24:34;;;;;;;0.52;0.52;;;10.70;99.90;;;;;;4442583;32;20069;-69
2022/05/06 01:27:04;;;;;;;4.80;0.90;;;10.40;99.90;;;;;;4437252;32;20516;-67
2022/05/06 01:29:32;;;;;;;0.43;0.43;;;10.30;99.90;;;;;;4421349;32;20076;-68
2022/05/06 01:31:58;;;;;;;0.40;0.40;;;10.30;99.90;;;;;;4429564;32;20080;-69
2022/05/06 01:34:29;;;;;;;0.45;0.45;;;10.60;99.90;;;;;;4440338;32;20080;-68
2022/05/06 01:36:57;;;;;;;0.57;0.57;;;10.60;99.90;;;;;;4432702;32;20528;-68
2022/05/06 01:39:28;;;;;;;0.57;0.57;;;10.40;99.90;;;;;;4434451;32;20544;-68
2022/05/06 01:41:58;;;;;;;2.25;1.10;;;10.40;99.90;;;;;;4431041;32;20520;-68
2022/05/06 01:44:25;;;;;;;0.52;0.50;;;10.50;99.90;;;;;;4434489;32;20074;-68
2022/05/06 01:46:55;;;;;;;0.40;0.40;;;10.60;99.90;;;;;;4435040;32;20487;-68
2022/05/06 01:49:22;;;;;;;0.30;0.30;;;10.70;99.90;;;;;;4434352;32;20493;-68
2022/05/06 01:51:48;;;;;;;2.55;0.82;;;10.70;99.90;;;;;;4431745;32;20471;-68
2022/05/06 01:54:14;;;;;;;0.75;0.55;;;10.60;99.90;;;;;;4435678;32;20073;-69
2022/05/06 01:56:41;;;;;;;0.37;0.37;;;10.50;99.90;;;;;;4431095;32;20073;-67
2022/05/06 01:59:07;;;;;;;1.10;0.65;;;10.50;99.90;;;;;;4416041;32;20427;-69
2022/05/06 02:01:33;;;;;;;7.15;1.08;;;10.50;99.90;;;;;;4417518;32;20057;-67
2022/05/06 02:05:30;;;;;;;1.48;0.93;;;10.50;99.90;;;;;;4431799;32;20081;-68
2022/05/06 02:06:44;;;;;;;0.98;0.70;;;10.50;99.90;;;;;;4419577;32;20065;-68
2022/05/06 02:09:10;;;;;;;1.00;0.73;;;10.30;99.90;;;;;;4429823;32;20081;-68
2022/05/06 02:11:35;;;;;;;0.77;0.77;;;10.00;99.90;;;;;;4432896;32;20061;-68
2022/05/06 02:14:01;;;;;;;0.88;0.62;;;9.80;99.90;;;;;;4434486;32;20127;-68
2022/05/06 02:16:28;;;;;;;0.82;0.82;;;9.90;99.90;;;;;;4432059;32;20062;-68
2022/05/06 02:18:53;;;;;;;0.30;0.30;;;9.90;99.90;;;;;;4433003;32;20085;-68
2022/05/06 02:21:19;;;;;;;4.32;2.05;;;9.90;99.90;;;;;;4434382;32;20072;-68
2022/05/06 02:23:44;;;;;;;0.40;0.40;;;10.00;99.90;;;;;;4430580;32;20098;-68
2022/05/06 02:26:10;;;;;;;0.50;0.50;;;10.00;99.90;;;;;;4429924;32;20085;-68
2022/05/06 02:28:35;;;;;;;10.13;1.70;;;9.70;99.90;;;;;;4417957;32;20570;-69
2022/05/06 02:33:23;;;;;;;0.68;0.62;;;9.60;99.90;;;;;;4414112;32;20441;-68
2022/05/06 02:33:46;;;;;;;0.62;0.62;;;9.50;99.90;;;;;;4418222;32;20081;-69
2022/05/06 02:36:11;;;;;;;3.92;1.30;;;9.40;99.90;;;;;;4429727;32;20408;-68
2022/05/06 02:38:37;;;;;;;0.62;0.47;;;9.40;99.90;;;;;;4427890;32;20525;-68
2022/05/06 02:41:03;;;;;;;0.43;0.43;;;9.50;99.90;;;;;;4432857;32;20157;-68
2022/05/06 02:43:28;;;;;;;8.00;0.90;;;9.60;99.90;;;;;;4430403;32;20088;-69
2022/05/06 02:45:54;;;;;;;7.18;0.88;;;9.60;99.90;;;;;;4429786;32;20082;-69
2022/05/06 02:48:19;;;;;;;3.50;0.57;;;9.70;99.90;;;;;;4435464;32;20074;-69
2022/05/06 02:50:45;;;;;;;0.70;0.65;;;9.80;99.90;;;;;;4435289;32;20760;-68
2022/05/06 02:53:10;;;;;;;0.50;0.50;;;9.80;99.90;;;;;;4432227;32;20460;-68
2022/05/06 02:55:36;;;;;;;0.40;0.40;;;9.70;99.90;;;;;;4427303;32;20106;-69
2022/05/06 02:58:03;;;;;;;0.50;0.50;;;9.70;99.90;;;;;;4419792;32;20065;-68
2022/05/06 03:00:29;;;;;;;4.10;0.77;;;9.70;99.90;;;;;;4404704;32;20057;-69
2022/05/06 03:02:56;;;;;;;0.60;0.60;;;9.60;99.90;;;;;;4429187;32;20074;-68
2022/05/06 03:05:23;;;;;;;0.98;0.73;;;9.70;99.90;;;;;;4431951;32;20122;-68
2022/05/06 03:07:48;;;;;;;2.90;0.75;;;9.70;99.90;;;;;;4428882;32;20069;-68
2022/05/06 03:10:14;;;;;;;1.95;0.68;;;9.80;99.90;;;;;;4427506;32;20411;-68
2022/05/06 03:12:43;;;;;;;1.40;0.70;;;9.80;99.90;;;;;;4434435;32;20068;-68
2022/05/06 03:15:09;;;;;;;0.98;0.57;;;9.60;99.90;;;;;;4432706;32;20134;-68
2022/05/06 03:17:35;;;;;;;0.68;0.68;;;9.50;99.90;;;;;;4427493;32;20069;-68
2022/05/06 03:20:01;;;;;;;1.02;0.70;;;9.50;99.90;;;;;;4432712;32;20088;-68
2022/05/06 03:22:28;;;;;;;0.30;0.30;;;9.60;99.90;;;;;;4430874;32;20080;-68
2022/05/06 03:24:54;;;;;;;1.10;0.77;;;9.60;99.90;;;;;;4430968;32;20066;-69
2022/05/06 03:28:20;;;;;;;0.50;0.50;;;9.50;99.90;;;;;;4423465;32;20077;-69
2022/05/06 03:30:06;;;;;;;1.83;0.70;;;9.50;99.90;;;;;;4398387;32;20829;-69
2022/05/06 03:32:33;;;;;;;4.15;1.90;;;9.30;99.90;;;;;;4423219;32;20085;-68
2022/05/06 03:34:58;;;;;;;0.30;0.30;;;9.30;99.90;;;;;;4433186;32;20111;-67
2022/05/06 03:37:26;;;;;;;0.28;0.28;;;9.20;99.90;;;;;;4439553;32;20519;-68
2022/05/06 03:39:51;;;;;;;0.90;0.82;;;9.20;99.90;;;;;;4440065;32;20069;-68
2022/05/06 03:42:17;;;;;;;0.43;0.43;;;9.40;99.90;;;;;;4439640;32;20076;-68
2022/05/06 03:44:42;;;;;;;0.65;0.65;;;9.40;99.90;;;;;;4441184;32;20070;-68
2022/05/06 03:47:08;;;;;;;2.85;1.42;;;9.50;99.90;;;;;;4440411;32;20571;-68
2022/05/06 03:49:33;;;;;;;1.05;0.90;;;9.50;99.90;;;;;;4441975;32;20061;-68
2022/05/06 03:51:59;;;;;;;0.70;0.60;;;9.60;99.90;;;;;;4444174;32;20073;-68
2022/05/06 03:54:26;;;;;;;1.35;0.60;;;9.60;99.90;;;;;;4437726;32;20081;-69
2022/05/06 03:56:51;;;;;;;0.30;0.30;;;9.50;99.90;;;;;;4440293;32;20106;-68
2022/05/06 03:59:17;;;;;;;0.57;0.50;;;9.30;99.90;;;;;;4420544;32;20053;-68
2022/05/06 04:01:42;;;;;;;0.60;0.60;;;9.30;99.90;;;;;;4427607;32;20115;-70
2022/05/06 04:04:08;;;;;;;0.60;0.60;;;9.50;99.90;;;;;;4442847;32;20525;-69
2022/05/06 04:06:33;;;;;;;0.73;0.70;;;9.50;99.90;;;;;;4437184;32;20410;-69
2022/05/06 04:08:59;;;;;;;18.60;1.52;;;9.60;99.90;;;;;;4437661;32;20445;-69
2022/05/06 04:11:25;;;;;;;0.68;0.68;;;9.70;99.90;;;;;;4437667;32;20061;-69
2022/05/06 04:13:50;;;;;;;0.40;0.40;;;9.70;99.90;;;;;;4439729;32;20525;-69
2022/05/06 04:16:16;;;;;;;0.32;0.32;;;9.70;99.90;;;;;;4438831;32;20073;-69
2022/05/06 04:18:41;;;;;;;0.70;0.70;;;9.70;99.90;;;;;;4439161;32;20074;-69
2022/05/06 04:23:38;;;;;;;0.60;0.60;;;9.70;99.90;;;;;;4431098;32;20108;-69
2022/05/06 04:23:52;;;;;;;4.78;1.02;;;9.60;99.90;;;;;;4384980;32;20236;-69
2022/05/06 04:26:18;;;;;;;0.93;0.50;;;9.60;99.90;;;;;;4398410;32;20069;-69
2022/05/06 04:28:44;;;;;;;13.77;1.27;;;9.80;99.90;;;;;;4383969;32;20061;-69
2022/05/06 04:31:09;;;;;;;2.90;1.65;;;9.90;99.90;;;;;;4387036;32;20592;-69
2022/05/06 04:33:38;;;;;;;0.45;0.45;;;9.90;99.90;;;;;;4396785;32;20062;-71
2022/05/06 04:36:04;;;;;;;0.43;0.43;;;9.90;99.90;;;;;;4436817;32;20102;-69
2022/05/06 04:38:29;;;;;;;0.50;0.50;;;10.00;99.90;;;;;;4438841;32;20084;-69
2022/05/06 04:40:56;;;;;;;1.05;0.75;;;10.20;99.90;;;;;;4441163;32;20084;-69
2022/05/06 04:43:22;;;;;;;1.23;0.70;;;10.20;99.90;;;;;;4437960;32;20065;-69
2022/05/06 04:45:49;;;;;;;0.40;0.40;;;10.30;99.90;;;;;;4444129;32;20566;-68
2022/05/06 04:48:15;;;;;;;0.50;0.50;;;10.40;99.90;;;;;;4439388;32;20418;-69
2022/05/06 04:50:42;;;;;;;0.35;0.35;;;10.40;99.90;;;;;;4445542;32;20064;-69
2022/05/06 04:53:09;;;;;;;0.43;0.40;;;10.50;99.90;;;;;;4413285;32;20567;-69
2022/05/06 04:55:36;;;;;;;1.15;0.57;;;10.50;99.90;;;;;;4396279;32;20183;-68
2022/05/06 04:58:02;;;;;;;0.95;0.73;;;10.60;99.90;;;;;;4430978;32;20065;-69
2022/05/06 05:00:28;;;;;;;0.50;0.50;;;10.80;99.90;;;;;;4419243;32;20397;-69
2022/05/06 05:02:54;;;;;;;0.40;0.40;;;10.80;99.90;;;;;;4424615;32;20398;-69
2022/05/06 05:05:19;;;;;;;4.32;0.43;;;10.80;99.90;;;;;;4400394;32;20070;-68
2022/05/06 05:07:45;;;;;;;0.62;0.62;;;10.80;99.90;;;;;;4398880;32;20576;-69
2022/05/06 05:10:10;;;;;;;0.50;0.50;;;10.90;99.90;;;;;;4387949;32;20159;-70
2022/05/06 05:12:36;;;;;;;1.30;0.77;;;11.00;99.90;;;;;;4387220;32;20057;-69
2022/05/06 05:15:03;;;;;;;1.75;0.73;;;11.10;99.90;;;;;;4387534;32;20338;-69
2022/05/06 05:17:28;;;;;;;2.67;0.95;;;11.10;99.90;;;;;;4398295;32;20236;-69
2022/05/06 05:19:54;;;;;;;0.40;0.40;;;11.30;99.90;;;;;;4352106;32;20108;-69
2022/05/06 05:22:19;;;;;;;0.65;0.52;;;11.30;99.90;;;;;;4352685;32;20251;-69
2022/05/06 05:24:47;;;;;;;0.95;0.80;;;11.50;99.90;;;;;;4340912;32;20515;-68
2022/05/06 05:27:13;;;;;;;0.45;0.45;;;11.50;99.90;;;;;;4350447;32;20609;-68
2022/05/06 05:29:40;;;;;;;0.77;0.77;;;11.50;99.90;;;;;;4345449;32;20366;-67
2022/05/06 05:32:06;;;;;;;0.52;0.52;;;11.50;99.90;;;;;;4350805;32;20868;-69
2022/05/06 05:34:32;;;;;;;1.10;0.85;;;11.50;99.90;;;;;;4372487;32;20461;-67
2022/05/06 05:36:58;;;;;;;0.47;0.45;;;11.50;99.90;;;;;;4351527;32;20090;-68
2022/05/06 05:39:24;;;;;;;0.62;0.62;;;11.60;99.90;;;;;;4353522;32;20423;-68
2022/05/06 05:41:50;;;;;;;0.98;0.40;;;11.70;99.90;;;;;;4362181;32;20306;-69
2022/05/06 05:48:19;;;;;;;1.23;0.50;;;11.90;99.90;;;;;;4378775;32;20135;-69
2022/05/06 05:49:49;;;;;;;0.40;0.40;;;12.00;99.90;;;;;;4367072;32;20756;-70
2022/05/06 05:52:15;;;;;;;0.60;0.60;;;12.20;99.90;;;;;;4373842;32;20343;-69
2022/05/06 05:54:40;;;;;;;0.98;0.70;;;12.20;99.90;;;;;;4390054;32;20967;-70
2022/05/06 05:57:06;;;;;;;0.40;0.40;;;12.20;99.90;;;;;;4375762;32;20470;-69
2022/05/06 05:59:33;;;;;;;0.50;0.50;;;12.40;99.90;;;;;;4381463;32;20121;-66
2022/05/06 06:02:01;;;;;;;1.17;1.08;;;12.50;99.90;;;;;;4354304;32;21438;-68
2022/05/06 06:04:27;;;;;;;0.43;0.43;;;12.60;99.90;;;;;;4360975;32;20082;-68
2022/05/06 06:06:53;;;;;;;3.03;0.80;;;12.70;99.90;;;;;;4370411;32;20245;-67
2022/05/06 06:09:22;;;;;;;2.90;1.00;;;12.70;99.90;;;;;;4372578;32;20101;-67
2022/05/06 06:11:48;;;;;;;0.40;0.40;;;12.70;99.90;;;;;;4376917;32;20451;-68
2022/05/06 06:14:15;;;;;;;2.83;0.85;;;12.80;99.90;;;;;;4382857;32;20113;-68
2022/05/06 06:16:40;;;;;;;0.50;0.50;;;12.80;99.90;;;;;;4388156;32;20093;-68
2022/05/06 06:19:06;;;;;;;0.65;0.65;;;12.80;99.90;;;;;;4379183;32;21537;-68
2022/05/06 06:21:31;;;;;;;3.05;1.48;;;12.90;99.90;;;;;;4395223;32;20077;-69
2022/05/06 06:23:56;;;;;;;1.83;1.00;;;13.00;99.90;;;;;;4388470;32;20078;-69
2022/05/06 06:26:22;;;;;;;1.05;0.47;;;13.10;99.90;;;;;;4385880;32;20065;-69
2022/05/06 06:28:47;;;;;;;0.40;0.40;;;13.20;99.90;;;;;;4395102;32;20812;-68
2022/05/06 06:31:13;;;;;;;0.52;0.40;;;13.20;99.90;;;;;;4380236;32;20089;-69
2022/05/06 06:33:38;;;;;;;0.82;0.77;;;13.30;99.90;;;;;;4379648;32;20186;-69
2022/05/06 06:36:05;;;;;;;1.55;1.00;;;13.40;99.90;;;;;;4380038;32;21423;-69
2022/05/06 06:38:31;;;;;;;1.15;0.60;;;13.50;99.90;;;;;;4378952;32;20409;-69
2022/05/06 06:40:56;;;;;;;0.40;0.40;;;13.50;99.90;;;;;;4392529;32;20569;-69
2022/05/06 06:43:22;;;;;;;0.47;0.47;;;13.50;99.90;;;;;;4384062;32;20164;-68
2022/05/06 06:45:47;;;;;;;3.72;0.85;;;13.60;99.90;;;;;;4376018;32;20954;-69
2022/05/06 06:48:13;;;;;;;2.72;0.57;;;13.70;99.90;;;;;;4382824;32;20620;-69
2022/05/06 06:50:39;;;;;;;0.40;0.40;;;13.80;99.90;;;;;;4385658;32;20845;-70
2022/05/06 06:53:05;;;;;;;0.35;0.35;;;13.80;99.90;;;;;;4385006;32;20117;-70
2022/05/06 06:55:31;;;;;;;0.32;0.32;;;13.90;99.90;;;;;;4383845;32;21303;-69
2022/05/06 06:57:56;;;;;;;0.85;0.77;;;13.90;99.90;;;;;;4382210;32;21257;-69
2022/05/06 07:00:22;;;;;;;0.50;0.50;;;14.00;99.90;;;;;;4380276;32;20526;-70
2022/05/06 07:02:48;;;;;;;0.40;0.40;;;14.10;99.90;;;;;;4374294;32;20085;-69
2022/05/06 07:05:13;;;;;;;1.50;1.17;;;14.20;99.90;;;;;;4360580;32;20137;-70
2022/05/06 07:12:24;;;;;;;5.87;1.42;;;14.30;99.90;;;;;;4372672;32;20110;-70
2022/05/06 07:13:11;;;;;;;0.40;0.40;;;14.40;99.90;;;;;;4387138;32;20845;-69
2022/05/06 07:15:36;;;;;;;3.50;1.85;;;14.50;99.90;;;;;;4390257;32;20637;-69
2022/05/06 07:18:02;;;;;;;2.50;0.50;;;14.60;99.90;;;;;;4380701;32;20100;-69
2022/05/06 07:20:27;;;;;;;4.12;0.62;;;14.70;99.90;;;;;;4378511;32;20476;-69
2022/05/06 07:22:53;;;;;;;17.77;0.68;;;14.80;99.90;;;;;;4376702;32;20600;-69
2022/05/06 07:25:19;;;;;;;1.40;0.65;;;14.90;99.90;;;;;;4369486;32;20101;-69
2022/05/06 07:27:44;;;;;;;2.90;1.05;;;15.00;99.90;;;;;;4385939;32;20965;-69
2022/05/06 07:30:10;;;;;;;0.50;0.50;;;15.10;99.90;;;;;;4374883;32;20595;-69
2022/05/06 07:32:37;;;;;;;0.90;0.80;;;15.20;99.90;;;;;;4361455;32;20227;-69
2022/05/06 07:35:04;;;;;;;2.37;0.88;;;15.30;99.90;;;;;;4357786;32;20298;-69
2022/05/06 07:37:33;;;;;;;3.62;0.75;;;15.40;99.90;;;;;;4380772;32;83230;-69
2022/05/06 07:40:00;;;;;;;0.40;0.40;;;15.60;99.90;;;;;;4387650;32;20089;-70
2022/05/06 07:42:25;;;;;;;0.50;0.50;;;15.70;99.90;;;;;;4380440;32;20085;-69
2022/05/06 07:44:51;;;;;;;1.48;0.60;;;16.00;99.90;;;;;;4391478;32;20400;-68
2022/05/06 07:47:16;;;;;;;0.37;0.37;;;16.00;99.90;;;;;;4385613;32;20633;-67
2022/05/06 07:49:41;;;;;;;0.62;0.40;;;16.10;99.90;;;;;;4378646;32;20100;-71
2022/05/06 07:52:07;;;;;;;0.57;0.57;;;16.30;99.90;;;;;;4365083;32;20085;-70
2022/05/06 07:54:32;;;;;;;0.40;0.40;;;16.40;99.90;;;;;;4370172;32;20088;-70
2022/05/06 07:56:58;;;;;;;0.40;0.40;;;16.50;99.90;;;;;;4374253;32;20471;-70
2022/05/06 07:59:24;;;;;;;0.30;0.30;;;16.50;99.90;;;;;;4372917;32;20077;-70
2022/05/06 08:04:38;;;;;;;0.82;0.80;;;16.60;99.90;;;;;;4341352;32;20206;-70
2022/05/06 08:07:05;;;;;;;0.95;0.85;;;16.70;99.90;;;;;;4374052;32;20156;-69
2022/05/06 08:09:32;;;;;;;0.40;0.40;;;16.80;99.90;;;;;;4380859;32;20126;-69
2022/05/06 08:11:58;;;;;;;0.40;0.40;;;16.70;99.90;;;;;;4388835;32;20975;-69
2022/05/06 08:14:23;;;;;;;1.05;0.85;;;16.80;99.90;;;;;;4375788;32;21499;-70
2022/05/06 08:16:50;;;;;;;0.60;0.60;;;16.90;99.90;;;;;;4382817;32;20109;-69
2022/05/06 08:19:17;;;;;;;0.73;0.73;;;16.90;99.90;;;;;;4368832;32;20093;-69
2022/05/06 08:21:42;;;;;;;0.28;0.28;;;16.80;99.90;;;;;;4363235;32;20312;-69
2022/05/06 08:24:08;;;;;;;1.08;0.65;;;16.80;99.90;;;;;;4359885;32;20174;-69
2022/05/06 08:26:34;;;;;;;0.60;0.60;;;17.00;99.90;;;;;;4357624;32;20222;-69
2022/05/06 08:28:59;;;;;;;1.45;0.55;;;17.00;99.90;;;;;;4380503;32;21702;-70
2022/05/06 08:31:27;;;;;;;3.42;1.23;;;17.10;99.90;;;;;;4363831;32;20271;-69
2022/05/06 08:33:53;;;;;;;0.57;0.57;;;17.00;99.90;;;;;;4359696;32;22666;-69
2022/05/06 08:36:19;;;;;;;1.37;1.17;;;16.90;99.90;;;;;;4366528;32;20322;-69
2022/05/06 08:38:45;;;;;;;1.20;0.68;;;16.70;99.90;;;;;;4377929;32;20226;-69
2022/05/06 08:41:12;;;;;;;1.20;0.40;;;16.60;99.90;;;;;;4384622;32;20104;-69
2022/05/06 08:43:38;;;;;;;0.98;0.65;;;16.70;99.90;;;;;;4374420;32;20743;-69
2022/05/06 08:50:56;;;;;;;0.40;0.40;;;17.30;99.90;;;;;;4358844;32;20133;-69
2022/05/06 08:51:39;;;;;;;0.52;0.52;;;17.80;99.90;;;;;;4359488;32;20171;-69
2022/05/06 08:54:05;;;;;;;0.40;0.40;;;18.00;99.90;;;;;;4372031;32;20714;-69
2022/05/06 08:56:31;;;;;;;0.30;0.30;;;18.00;99.90;;;;;;4374811;32;20335;-68
2022/05/06 08:58:57;;;;;;;3.90;1.05;;;17.90;99.90;;;;;;4370838;32;24643;-71
2022/05/06 09:01:23;;;;;;;2.70;0.62;;;17.50;99.90;;;;;;4377029;32;20770;-70
2022/05/06 09:03:49;;;;;;;0.40;0.40;;;17.20;99.90;;;;;;4358105;32;20303;-70
2022/05/06 09:06:18;;;;;;;0.60;0.60;;;17.00;99.90;;;;;;4368140;32;20179;-70
2022/05/06 09:08:44;;;;;;;0.60;0.60;;;16.80;99.90;;;;;;4380665;32;20572;-70
2022/05/06 09:11:11;;;;;;;0.40;0.40;;;16.80;99.90;;;;;;4387979;32;20093;-71
2022/05/06 09:13:50;;;;;;;1.08;0.82;;;17.10;99.90;;;;;;4386861;32;20157;-69
2022/05/06 09:16:53;;;;;;;2.08;0.50;;;17.50;99.90;;;;;;4392112;32;21293;-70
2022/05/06 09:19:10;;;;;;;0.40;0.40;;;17.90;99.90;;;;;;4359238;32;20454;-69
2022/05/06 09:21:36;;;;;;;0.68;0.60;;;18.30;99.00;;;;;;4368880;32;20429;-69
2022/05/06 09:24:16;;;;;;;1.37;0.80;;;18.50;98.90;;;;;;4349788;32;20228;-71
2022/05/06 09:26:55;;;;;;;0.47;0.47;;;18.60;98.80;;;;;;4360165;32;20272;-69
2022/05/06 09:29:34;;;;;;;0.50;0.50;;;19.00;98.30;;;;;;4371788;32;20240;-69
2022/05/06 09:32:14;;;;;;;0.80;0.80;;;19.00;97.50;;;;;;4368052;32;20569;-68
2022/05/06 09:34:41;;;;;;;0.75;0.60;;;18.90;98.10;;;;;;4371141;32;20092;-69
2022/05/06 09:37:07;;;;;;;0.65;0.65;;;19.10;97.70;;;;;;4368888;32;20220;-70
2022/05/06 09:39:38;;;;;;;8.68;1.12;;;19.00;97.90;;;;;;4369097;32;20637;-69
2022/05/06 09:42:04;;;;;;;0.52;0.52;;;18.60;97.70;;;;;;4376458;32;20664;-69
2022/05/06 09:44:31;;;;;;;3.87;0.93;;;18.30;98.30;;;;;;4379992;32;20251;-69
2022/05/06 09:47:15;;;;;;;1.00;0.73;;;18.00;98.30;;;;;;4377022;32;20133;-71
2022/05/06 09:49:42;;;;;;;0.80;0.62;;;18.20;97.90;;;;;;4367773;32;21000;-71
2022/05/06 09:52:12;;;;;;;0.45;0.45;;;18.20;98.10;;;;;;4373366;32;20747;-70
2022/05/06 09:54:41;;;;;;;0.20;0.20;;;18.20;97.80;;;;;;4350526;32;20879;-70
2022/05/06 09:57:09;;;;;;;36.08;1.40;;;18.10;98.00;;;;;;4362834;32;20093;-69
2022/05/06 09:59:36;;;;;;;5.68;1.67;;;18.00;97.90;;;;;;4372051;32;20960;-69
2022/05/06 10:02:03;;;;;;;1.17;1.00;;;18.40;97.40;;;;;;4360310;32;20216;-70
2022/05/06 10:04:28;;;;;;;0.40;0.40;;;18.80;97.50;;;;;;4352483;32;20573;-71
2022/05/06 10:06:58;;;;;;;20.30;0.88;;;19.10;96.20;;;;;;4366921;32;20101;-71
2022/05/06 10:09:25;;;;;;;0.52;0.52;;;19.80;95.70;;;;;;4373515;32;20203;-69
2022/05/06 10:11:52;;;;;;;0.40;0.40;;;19.90;96.00;;;;;;4379577;32;20871;-70
2022/05/06 10:14:19;;;;;;;0.30;0.30;;;20.20;94.90;;;;;;4372455;32;20804;-70
2022/05/06 10:16:46;;;;;;;0.47;0.37;;;20.10;94.50;;;;;;4361587;32;20105;-71
2022/05/06 10:19:26;;;;;;;0.40;0.40;;;20.10;94.40;;;;;;4359570;32;20085;-71
2022/05/06 10:21:52;;;;;;;0.52;0.50;;;20.50;94.70;;;;;;4340614;32;20495;-71
2022/05/06 10:24:18;;;;;;;0.52;0.52;;;20.40;93.80;;;;;;4346425;32;20317;-71
2022/05/06 10:26:45;;;;;;;0.30;0.30;;;20.50;93.80;;;;;;4358023;32;20412;-70
2022/05/06 10:32:54;;;;;;;0.35;0.35;;;20.40;93.20;;;;;;4348054;32;20343;-71
2022/05/06 10:35:38;;;;;;;0.47;0.47;;;20.50;94.40;;;;;;4359441;32;20955;-71
2022/05/06 10:38:23;;;;;;;2.45;0.77;;;21.00;94.00;;;;;;4395617;32;20380;-71
2022/05/06 10:40:57;;;;;;;1.83;0.80;;;21.60;91.80;;;;;;4394123;32;20153;-71
2022/05/06 10:43:45;;;;;;;0.20;0.20;;;21.40;91.20;;;;;;4397103;32;20108;-70
2022/05/06 10:46:11;;;;;;;0.20;0.20;;;21.60;91.10;;;;;;4385588;32;20523;-71
2022/05/06 10:48:36;;;;;;;0.30;0.30;;;21.70;90.40;;;;;;4381156;32;20477;-71
2022/05/06 10:51:24;;;;;;;0.40;0.40;;;22.00;90.00;;;;;;4391124;32;20872;-71
2022/05/06 10:53:50;;;;;;;0.70;0.70;;;22.30;90.10;;;;;;4361326;32;20459;-72
2022/05/06 10:56:16;;;;;;;0.40;0.40;;;22.50;90.50;;;;;;4360545;32;20265;-69
2022/05/06 10:58:42;;;;;;;0.30;0.30;;;22.50;89.70;;;;;;4372177;32;20411;-69
2022/05/06 11:01:16;;;;;;;2.00;0.50;;;22.70;89.50;;;;;;4372544;32;21086;-71
2022/05/06 11:03:56;;;;;;;0.75;0.30;;;22.60;88.20;;;;;;4367094;32;20666;-69
2022/05/06 11:06:23;;;;;;;0.80;0.40;;;22.60;88.70;;;;;;4366384;32;20289;-69
2022/05/06 11:08:49;;;;;;;0.30;0.30;;;22.80;85.60;;;;;;4379861;32;20727;-69
2022/05/06 11:11:16;;;;;;;0.30;0.30;;;22.90;87.10;;;;;;4385194;32;20244;-70
2022/05/06 11:13:44;;;;;;;0.45;0.45;;;23.00;85.80;;;;;;4386191;32;20100;-70
2022/05/06 11:16:12;;;;;;;0.52;0.52;;;23.20;83.90;;;;;;4386557;32;20194;-69
2022/05/06 11:18:45;;;;;;;1.52;0.77;;;23.40;83.10;;;;;;4389028;32;20777;-70
2022/05/06 11:21:31;;;;;;;0.20;0.20;;;23.60;84.00;;;;;;4402674;32;20109;-71
2022/05/06 11:23:56;;;;;;;1.98;0.22;;;23.60;83.90;;;;;;4391071;32;20096;-71
2022/05/06 11:26:30;;;;;;;0.20;0.20;;;23.80;83.00;;;;;;4388334;32;20155;-71
2022/05/06 11:29:04;;;;;;;0.73;0.32;;;23.80;84.40;;;;;;4393197;32;20302;-70
2022/05/06 11:31:29;;;;;;;0.20;0.20;;;23.60;83.80;;;;;;4391978;32;20390;-70
2022/05/06 11:34:01;;;;;;;0.30;0.30;;;23.50;81.50;;;;;;4382564;32;20117;-70
2022/05/06 11:36:26;;;;;;;18.52;0.40;;;23.00;81.00;;;;;;4388082;32;20219;-70
2022/05/06 11:38:52;;;;;;;0.20;0.20;;;23.40;81.40;;;;;;4397761;32;20101;-71
2022/05/06 11:41:17;;;;;;;0.30;0.30;;;23.60;79.90;;;;;;4390423;32;20108;-70
2022/05/06 11:43:45;;;;;;;0.40;0.40;;;23.90;79.80;;;;;;4395289;32;20774;-71
2022/05/06 11:47:34;;;;;;;0.30;0.30;;;24.20;78.60;;;;;;4400363;32;20434;-71
2022/05/06 11:49:04;;;;;;;0.30;0.30;;;24.10;78.40;;;;;;4376131;32;20105;-72
2022/05/06 11:51:37;;;;;;;0.20;0.20;;;24.00;81.90;;;;;;4394006;32;22131;-72
2022/05/06 11:54:04;;;;;;;0.30;0.30;;;24.10;82.00;;;;;;4398528;32;20175;-72
2022/05/06 11:56:30;;;;;;;0.20;0.20;;;23.90;82.80;;;;;;4385530;32;20434;-72
2022/05/06 11:58:57;;;;;;;0.60;0.37;;;23.10;83.90;;;;;;4394642;32;20436;-71
2022/05/06 12:01:29;;;;;;;0.20;0.20;;;22.60;84.60;;;;;;4394185;32;20211;-71
2022/05/06 12:04:04;;;;;;;0.35;0.35;;;22.10;86.40;;;;;;4386633;32;20367;-70
2022/05/06 12:06:35;;;;;;;0.45;0.45;;;21.90;86.10;;;;;;4397993;32;20113;-70
2022/05/06 12:09:11;;;;;;;0.40;0.40;;;21.30;87.20;;;;;;4400151;32;20187;-69
2022/05/06 12:11:37;;;;;;;0.65;0.65;;;20.90;89.50;;;;;;4400219;32;20271;-69
2022/05/06 12:14:06;;;;;;;3.40;1.35;;;21.00;89.20;;;;;;4394706;32;20235;-69
2022/05/06 12:16:32;;;;;;;0.30;0.30;;;21.00;89.20;;;;;;4394399;32;20097;-70
2022/05/06 12:18:58;;;;;;;0.40;0.40;;;21.00;89.90;;;;;;4384193;32;20298;-71
2022/05/06 12:21:26;;;;;;;0.47;0.47;;;21.00;88.80;;;;;;4409630;32;20105;-71
2022/05/06 12:23:55;;;;;;;0.20;0.20;;;20.90;90.00;;;;;;4395106;32;20180;-70
2022/05/06 12:26:33;;;;;;;0.40;0.40;;;20.90;90.20;;;;;;4395503;32;20620;-71
2022/05/06 12:29:00;;;;;;;0.20;0.20;;;20.60;89.00;;;;;;4397013;32;20248;-70
2022/05/06 12:31:28;;;;;;;0.40;0.40;;;20.40;88.70;;;;;;4367309;32;20161;-70
2022/05/06 12:34:03;;;;;;;0.25;0.25;;;20.40;87.60;;;;;;4324073;32;20243;-68
2022/05/06 12:36:29;;;;;;;0.30;0.30;;;20.50;89.20;;;;;;4350622;32;20255;-69
2022/05/06 12:38:54;;;;;;;0.45;0.45;;;20.70;88.70;;;;;;4374846;32;20069;-69
2022/05/06 12:41:26;;;;;;;0.30;0.30;;;20.80;87.50;;;;;;4387795;32;20241;-70
2022/05/06 12:43:57;;;;;;;0.28;0.28;;;20.80;87.40;;;;;;4392193;32;20105;-71
2022/05/06 12:46:25;;;;;;;;;;;20.90;86.30;;;;;;4383092;32;20424;-71
2022/05/06 12:49:51;;;;;;;1.33;0.52;;;20.80;86.90;;;;;;4382978;32;20040;-71
2022/05/06 12:51:39;;;;;;;0.28;0.28;;;20.70;87.60;;;;;;4395878;32;20601;-71
2022/05/06 12:54:05;;;;;;;3.40;0.50;;;20.80;86.90;;;;;;4396373;32;20081;-71
2022/05/06 12:56:30;;;;;;;11.10;0.68;;;21.10;87.10;;;;;;4392738;32;20090;-73
2022/05/06 12:58:56;;;;;;;0.30;0.30;;;21.30;85.30;;;;;;4396835;32;20252;-70
2022/05/06 13:01:22;;;;;;;0.30;0.30;;;21.60;86.60;;;;;;4372357;32;20426;-70
2022/05/06 13:03:47;;;;;;;0.22;0.22;;;22.10;85.80;;;;;;4344163;32;20215;-70
2022/05/06 13:06:13;;;;;;;0.20;0.20;;;22.20;85.10;;;;;;4360916;32;20800;-70